logo
Rechercher aéroport 
image banner adimage banner adimage banner ad
image banner ad

CA26 - Hall Of Justice

Situé à San Francisco, United States

ICAO - CA26, IATA -

Données fournies par Airmate  

Information générale

Coordonnées: N37°46'30" W122°24'15"
Élévation : 118 feet MSL.
Variation magnétique : 16° East
Voir autres Aéroports à California

Données opérationnelles

Special qualification required
Heure actuelle UTC:
Heure actuelle locale:
Météo à : KOAK - Metropolitan Oakland Intl ( 17 km )
METAR: KOAK 261453Z 30005KT 10SM FEW006 OVC009 15/13 A3000 RMK AO2 SLP159 T01500128 53005
TAF: KOAK 261137Z 2612/2718 30005KT P6SM OVC009 FM261900 29008KT P6SM SCT011 FM262200 31013KT P6SM SKC FM270400 29007KT P6SM BKN010 FM271730 29005KT P6SM FEW006 SCT012
Voir NOTAMs / SUP AIP / TFR affectant cet aéroport [VIEW]
Fréquences de communication: [VIEW]

Pistes:

Coordonnées de l'aéroport

Adresse: San Francisco United States

Vue satellite de CA26